sensor_id;sensor_type;location;lat;lon;timestamp;pressure;altitude;pressure_sealevel;temperature;humidity
50977;BME280;36992;48.200;12.418;2023-09-08T00:00:11;96994.00;;;22.83;44.15
50977;BME280;36992;48.200;12.418;2023-09-08T00:02:39;96995.16;;;22.82;43.87
50977;BME280;36992;48.200;12.418;2023-09-08T00:05:06;96999.00;;;22.77;44.28
50977;BME280;36992;48.200;12.418;2023-09-08T00:07:32;96996.22;;;22.73;44.07
50977;BME280;36992;48.200;12.418;2023-09-08T00:09:59;96998.53;;;22.71;44.10
50977;BME280;36992;48.200;12.418;2023-09-08T00:12:25;97004.75;;;22.68;44.27
50977;BME280;36992;48.200;12.418;2023-09-08T00:14:52;97001.13;;;22.64;44.37
50977;BME280;36992;48.200;12.418;2023-09-08T00:17:18;97001.06;;;22.60;44.50
50977;BME280;36992;48.200;12.418;2023-09-08T00:19:46;97003.41;;;22.58;44.16
50977;BME280;36992;48.200;12.418;2023-09-08T00:22:12;96996.25;;;22.54;44.08
50977;BME280;36992;48.200;12.418;2023-09-08T00:24:39;96996.53;;;22.48;44.18
50977;BME280;36992;48.200;12.418;2023-09-08T00:27:05;97005.06;;;22.43;44.20
50977;BME280;36992;48.200;12.418;2023-09-08T00:29:32;97008.09;;;22.38;44.63
50977;BME280;36992;48.200;12.418;2023-09-08T00:31:58;96998.22;;;22.33;44.74
50977;BME280;36992;48.200;12.418;2023-09-08T00:34:25;96989.91;;;22.30;45.04
50977;BME280;36992;48.200;12.418;2023-09-08T00:36:52;97007.53;;;22.29;44.74
50977;BME280;36992;48.200;12.418;2023-09-08T00:39:19;97006.66;;;22.24;44.89
50977;BME280;36992;48.200;12.418;2023-09-08T00:41:45;97006.25;;;22.22;45.18
50977;BME280;36992;48.200;12.418;2023-09-08T00:44:12;97001.13;;;22.21;45.26
50977;BME280;36992;48.200;12.418;2023-09-08T00:46:38;97000.31;;;22.20;45.42
50977;BME280;36992;48.200;12.418;2023-09-08T00:49:05;97005.00;;;22.20;45.36
50977;BME280;36992;48.200;12.418;2023-09-08T00:51:34;97004.22;;;22.19;45.20
50977;BME280;36992;48.200;12.418;2023-09-08T00:54:05;97005.78;;;22.20;44.80
50977;BME280;36992;48.200;12.418;2023-09-08T00:56:32;97001.03;;;22.17;45.37
50977;BME280;36992;48.200;12.418;2023-09-08T00:58:59;97006.53;;;22.17;45.45
50977;BME280;36992;48.200;12.418;2023-09-08T01:01:27;97001.03;;;22.17;45.16
50977;BME280;36992;48.200;12.418;2023-09-08T01:03:54;97004.94;;;22.16;45.14
50977;BME280;36992;48.200;12.418;2023-09-08T01:06:21;97004.13;;;22.16;45.27
50977;BME280;36992;48.200;12.418;2023-09-08T01:08:48;97007.25;;;22.14;45.08
50977;BME280;36992;48.200;12.418;2023-09-08T01:11:16;97005.66;;;22.13;45.31
50977;BME280;36992;48.200;12.418;2023-09-08T01:13:44;97008.31;;;22.09;45.08
50977;BME280;36992;48.200;12.418;2023-09-08T01:16:10;97007.09;;;22.07;45.19
50977;BME280;36992;48.200;12.418;2023-09-08T01:18:37;97004.28;;;22.03;45.07
50977;BME280;36992;48.200;12.418;2023-09-08T01:21:20;97009.41;;;22.05;44.61
50977;BME280;36992;48.200;12.418;2023-09-08T01:24:12;97008.53;;;22.01;45.03
50977;BME280;36992;48.200;12.418;2023-09-08T01:26:44;96999.81;;;21.95;45.04
50977;BME280;36992;48.200;12.418;2023-09-08T01:29:13;97000.53;;;21.92;44.91
50977;BME280;36992;48.200;12.418;2023-09-08T01:31:39;96994.97;;;21.88;45.19
50977;BME280;36992;48.200;12.418;2023-09-08T01:34:07;97003.59;;;21.87;45.67
50977;BME280;36992;48.200;12.418;2023-09-08T01:36:34;96992.50;;;21.83;45.28
50977;BME280;36992;48.200;12.418;2023-09-08T01:39:01;96996.78;;;21.80;45.26
50977;BME280;36992;48.200;12.418;2023-09-08T01:41:28;97002.63;;;21.79;45.32
50977;BME280;36992;48.200;12.418;2023-09-08T01:43:56;96999.44;;;21.77;45.17
50977;BME280;36992;48.200;12.418;2023-09-08T01:46:24;96995.38;;;21.70;45.73
50977;BME280;36992;48.200;12.418;2023-09-08T01:48:50;97000.00;;;21.66;46.11
50977;BME280;36992;48.200;12.418;2023-09-08T01:51:16;96995.22;;;21.63;45.55
50977;BME280;36992;48.200;12.418;2023-09-08T01:53:43;97001.41;;;21.60;45.48
50977;BME280;36992;48.200;12.418;2023-09-08T01:56:09;96995.84;;;21.56;45.89
50977;BME280;36992;48.200;12.418;2023-09-08T01:58:36;97001.25;;;21.53;45.69
50977;BME280;36992;48.200;12.418;2023-09-08T02:01:04;97001.97;;;21.50;45.67
50977;BME280;36992;48.200;12.418;2023-09-08T02:03:31;97005.44;;;21.47;45.81
50977;BME280;36992;48.200;12.418;2023-09-08T02:05:57;96996.34;;;21.42;45.73
50977;BME280;36992;48.200;12.418;2023-09-08T02:08:24;97002.50;;;21.39;45.79
50977;BME280;36992;48.200;12.418;2023-09-08T02:10:50;96998.91;;;21.35;45.71
50977;BME280;36992;48.200;12.418;2023-09-08T02:13:17;97001.56;;;21.32;45.89
50977;BME280;36992;48.200;12.418;2023-09-08T02:15:43;96998.75;;;21.28;46.49
50977;BME280;36992;48.200;12.418;2023-09-08T02:18:11;96999.91;;;21.27;45.89
50977;BME280;36992;48.200;12.418;2023-09-08T02:20:38;96999.03;;;21.23;46.17
50977;BME280;36992;48.200;12.418;2023-09-08T02:23:06;96997.44;;;21.22;46.08
50977;BME280;36992;48.200;12.418;2023-09-08T02:25:32;97000.09;;;21.18;46.42
50977;BME280;36992;48.200;12.418;2023-09-08T02:27:59;97000.44;;;21.16;46.18
50977;BME280;36992;48.200;12.418;2023-09-08T02:30:26;96997.28;;;21.14;46.34
50977;BME280;36992;48.200;12.418;2023-09-08T02:32:52;96995.66;;;21.13;46.75
50977;BME280;36992;48.200;12.418;2023-09-08T02:35:22;96986.31;;;21.14;46.18
50977;BME280;36992;48.200;12.418;2023-09-08T02:37:49;96988.16;;;21.10;46.71
50977;BME280;36992;48.200;12.418;2023-09-08T02:40:15;96996.38;;;21.10;46.10
50977;BME280;36992;48.200;12.418;2023-09-08T02:42:42;97001.06;;;21.10;46.68
50977;BME280;36992;48.200;12.418;2023-09-08T02:45:09;96994.00;;;21.09;46.55
50977;BME280;36992;48.200;12.418;2023-09-08T02:47:36;96995.94;;;21.08;45.98
50977;BME280;36992;48.200;12.418;2023-09-08T02:50:03;96992.41;;;21.08;46.39
50977;BME280;36992;48.200;12.418;2023-09-08T02:52:31;96986.13;;;21.07;46.14
50977;BME280;36992;48.200;12.418;2023-09-08T02:54:58;96990.75;;;21.03;46.21
50977;BME280;36992;48.200;12.418;2023-09-08T02:57:24;96993.03;;;21.01;46.44
50977;BME280;36992;48.200;12.418;2023-09-08T02:59:51;96993.75;;;20.98;46.86
50977;BME280;36992;48.200;12.418;2023-09-08T03:02:17;96990.19;;;20.97;46.23
50977;BME280;36992;48.200;12.418;2023-09-08T03:04:44;96990.56;;;20.96;46.54
50977;BME280;36992;48.200;12.418;2023-09-08T03:07:11;96999.91;;;20.95;46.90
50977;BME280;36992;48.200;12.418;2023-09-08T03:09:38;96996.03;;;20.96;46.81
50977;BME280;36992;48.200;12.418;2023-09-08T03:12:05;96999.47;;;20.93;46.64
50977;BME280;36992;48.200;12.418;2023-09-08T03:14:32;97001.41;;;20.92;46.52
50977;BME280;36992;48.200;12.418;2023-09-08T03:16:58;96999.81;;;20.91;46.67
50977;BME280;36992;48.200;12.418;2023-09-08T03:19:25;97000.19;;;20.89;46.58
50977;BME280;36992;48.200;12.418;2023-09-08T03:21:52;96991.88;;;20.86;46.54
50977;BME280;36992;48.200;12.418;2023-09-08T03:24:18;96989.03;;;20.82;46.73
50977;BME280;36992;48.200;12.418;2023-09-08T03:26:46;96991.31;;;20.80;46.18
50977;BME280;36992;48.200;12.418;2023-09-08T03:29:13;96993.97;;;20.76;46.61
50977;BME280;36992;48.200;12.418;2023-09-08T03:31:39;96986.44;;;20.73;46.88
50977;BME280;36992;48.200;12.418;2023-09-08T03:34:06;96986.03;;;20.71;46.75
50977;BME280;36992;48.200;12.418;2023-09-08T03:36:32;96984.78;;;20.69;47.16
50977;BME280;36992;48.200;12.418;2023-09-08T03:39:01;96990.59;;;20.67;46.75
50977;BME280;36992;48.200;12.418;2023-09-08T03:41:27;96985.84;;;20.64;47.04
50977;BME280;36992;48.200;12.418;2023-09-08T03:43:55;96993.25;;;20.63;46.48
50977;BME280;36992;48.200;12.418;2023-09-08T03:46:22;96993.97;;;20.60;46.90
50977;BME280;36992;48.200;12.418;2023-09-08T03:48:49;96991.91;;;20.57;46.92
50977;BME280;36992;48.200;12.418;2023-09-08T03:51:16;96991.47;;;20.55;46.62
50977;BME280;36992;48.200;12.418;2023-09-08T03:53:42;96999.25;;;20.53;47.34
50977;BME280;36992;48.200;12.418;2023-09-08T03:56:09;97002.69;;;20.50;46.96
50977;BME280;36992;48.200;12.418;2023-09-08T03:58:35;96993.22;;;20.47;46.93
50977;BME280;36992;48.200;12.418;2023-09-08T04:01:03;96999.16;;;20.49;46.82
50977;BME280;36992;48.200;12.418;2023-09-08T04:03:30;96993.59;;;20.46;46.71
50977;BME280;36992;48.200;12.418;2023-09-08T04:05:56;96994.28;;;20.43;46.80
50977;BME280;36992;48.200;12.418;2023-09-08T04:08:23;97000.09;;;20.41;47.16
50977;BME280;36992;48.200;12.418;2023-09-08T04:10:49;96997.72;;;20.40;47.09
50977;BME280;36992;48.200;12.418;2023-09-08T04:13:16;96996.94;;;20.39;47.31
50977;BME280;36992;48.200;12.418;2023-09-08T04:15:42;97005.47;;;20.38;47.52
50977;BME280;36992;48.200;12.418;2023-09-08T04:18:10;97000.00;;;20.38;47.33
50977;BME280;36992;48.200;12.418;2023-09-08T04:20:37;97002.31;;;20.35;47.48
50977;BME280;36992;48.200;12.418;2023-09-08T04:23:03;97006.19;;;20.34;46.68
50977;BME280;36992;48.200;12.418;2023-09-08T04:25:30;96997.53;;;20.32;47.23
50977;BME280;36992;48.200;12.418;2023-09-08T04:27:56;97008.47;;;20.32;47.35
50977;BME280;36992;48.200;12.418;2023-09-08T04:30:23;97002.22;;;20.32;47.47
50977;BME280;36992;48.200;12.418;2023-09-08T04:32:49;97002.56;;;20.30;47.38
50977;BME280;36992;48.200;12.418;2023-09-08T04:35:17;97002.56;;;20.30;46.83
50977;BME280;36992;48.200;12.418;2023-09-08T04:37:44;97006.00;;;20.27;47.17
50977;BME280;36992;48.200;12.418;2023-09-08T04:40:10;97009.06;;;20.26;47.29
50977;BME280;36992;48.200;12.418;2023-09-08T04:42:37;96999.63;;;20.23;47.23
50977;BME280;36992;48.200;12.418;2023-09-08T04:45:05;96998.03;;;20.22;47.43
50977;BME280;36992;48.200;12.418;2023-09-08T04:47:31;97005.78;;;20.20;47.16
50977;BME280;36992;48.200;12.418;2023-09-08T04:49:58;97001.81;;;20.17;47.14
50977;BME280;36992;48.200;12.418;2023-09-08T04:52:26;97005.34;;;20.18;47.08
50977;BME280;36992;48.200;12.418;2023-09-08T04:54:52;97008.78;;;20.15;47.54
50977;BME280;36992;48.200;12.418;2023-09-08T04:57:19;97001.69;;;20.14;47.41
50977;BME280;36992;48.200;12.418;2023-09-08T04:59:45;97001.69;;;20.14;47.61
50977;BME280;36992;48.200;12.418;2023-09-08T05:02:12;97007.16;;;20.14;47.58
50977;BME280;36992;48.200;12.418;2023-09-08T05:04:38;97000.94;;;20.13;47.50
50977;BME280;36992;48.200;12.418;2023-09-08T05:07:05;97006.06;;;20.15;47.84
50977;BME280;36992;48.200;12.418;2023-09-08T05:09:33;97003.31;;;20.15;47.49
50977;BME280;36992;48.200;12.418;2023-09-08T05:11:59;97004.09;;;20.15;47.62
50977;BME280;36992;48.200;12.418;2023-09-08T05:14:26;97013.13;;;20.16;47.39
50977;BME280;36992;48.200;12.418;2023-09-08T05:16:53;97020.50;;;20.15;47.41
50977;BME280;36992;48.200;12.418;2023-09-08T05:19:21;97020.16;;;20.17;47.78
50977;BME280;36992;48.200;12.418;2023-09-08T05:21:50;97024.50;;;20.18;47.26
50977;BME280;36992;48.200;12.418;2023-09-08T05:24:16;97011.97;;;20.17;47.78
50977;BME280;36992;48.200;12.418;2023-09-08T05:26:44;97016.28;;;20.18;47.30
50977;BME280;36992;48.200;12.418;2023-09-08T05:29:11;97022.91;;;20.17;47.31
50977;BME280;36992;48.200;12.418;2023-09-08T05:31:37;97025.19;;;20.15;47.96
50977;BME280;36992;48.200;12.418;2023-09-08T05:34:04;97027.47;;;20.13;47.95
50977;BME280;36992;48.200;12.418;2023-09-08T05:36:30;97035.22;;;20.11;48.08
50977;BME280;36992;48.200;12.418;2023-09-08T05:38:58;97037.16;;;20.10;47.79
50977;BME280;36992;48.200;12.418;2023-09-08T05:41:24;97042.63;;;20.10;48.41
50977;BME280;36992;48.200;12.418;2023-09-08T05:43:53;97036.81;;;20.12;48.09
50977;BME280;36992;48.200;12.418;2023-09-08T05:46:19;97039.13;;;20.10;48.12
50977;BME280;36992;48.200;12.418;2023-09-08T05:48:45;97047.75;;;20.12;48.47
50977;BME280;36992;48.200;12.418;2023-09-08T05:51:13;97045.81;;;20.12;48.20
50977;BME280;36992;48.200;12.418;2023-09-08T05:53:40;97044.69;;;20.13;48.40
50977;BME280;36992;48.200;12.418;2023-09-08T05:56:07;97048.19;;;20.14;48.59
50977;BME280;36992;48.200;12.418;2023-09-08T05:58:33;97053.31;;;20.15;48.28
50977;BME280;36992;48.200;12.418;2023-09-08T06:01:01;97052.66;;;20.18;48.08
50977;BME280;36992;48.200;12.418;2023-09-08T06:03:28;97046.38;;;20.18;48.38
50977;BME280;36992;48.200;12.418;2023-09-08T06:05:55;97056.16;;;20.19;48.66
50977;BME280;36992;48.200;12.418;2023-09-08T06:08:21;97055.00;;;20.20;48.45
50977;BME280;36992;48.200;12.418;2023-09-08T06:10:48;97053.09;;;20.20;48.38
50977;BME280;36992;48.200;12.418;2023-09-08T06:13:14;97060.56;;;20.24;48.99
50977;BME280;36992;48.200;12.418;2023-09-08T06:15:41;97058.22;;;20.22;48.52
50977;BME280;36992;48.200;12.418;2023-09-08T06:18:09;97057.50;;;20.25;48.42
50977;BME280;36992;48.200;12.418;2023-09-08T06:20:36;97058.22;;;20.22;48.38
50977;BME280;36992;48.200;12.418;2023-09-08T06:23:02;97051.16;;;20.21;48.89
50977;BME280;36992;48.200;12.418;2023-09-08T06:25:29;97054.66;;;20.21;49.26
50977;BME280;36992;48.200;12.418;2023-09-08T06:27:55;97054.66;;;20.21;48.96
50977;BME280;36992;48.200;12.418;2023-09-08T06:30:22;97051.59;;;20.23;49.01
50977;BME280;36992;48.200;12.418;2023-09-08T06:32:48;97048.84;;;20.23;48.92
50977;BME280;36992;48.200;12.418;2023-09-08T06:35:16;97059.09;;;20.26;48.53
50977;BME280;36992;48.200;12.418;2023-09-08T06:37:43;97053.63;;;20.26;49.33
50977;BME280;36992;48.200;12.418;2023-09-08T06:40:09;97055.22;;;20.27;49.34
50977;BME280;36992;48.200;12.418;2023-09-08T06:42:36;97054.09;;;20.28;48.70
50977;BME280;36992;48.200;12.418;2023-09-08T06:45:03;97062.28;;;20.28;49.47
50977;BME280;36992;48.200;12.418;2023-09-08T06:47:29;97052.94;;;20.29;49.27
50977;BME280;36992;48.200;12.418;2023-09-08T06:49:56;97057.59;;;20.29;48.79
50977;BME280;36992;48.200;12.418;2023-09-08T06:52:24;97060.81;;;20.31;49.18
50977;BME280;36992;48.200;12.418;2023-09-08T06:54:50;97055.34;;;20.31;49.44
50977;BME280;36992;48.200;12.418;2023-09-08T06:57:18;97067.53;;;20.33;49.95
50977;BME280;36992;48.200;12.418;2023-09-08T06:59:45;97055.44;;;20.34;49.79
50977;BME280;36992;48.200;12.418;2023-09-08T07:02:11;97052.31;;;20.36;50.33
50977;BME280;36992;48.200;12.418;2023-09-08T07:04:38;97067.72;;;20.41;49.95
50977;BME280;36992;48.200;12.418;2023-09-08T07:07:04;97056.78;;;20.41;49.84
50977;BME280;36992;48.200;12.418;2023-09-08T07:09:33;97071.59;;;20.40;49.75
50977;BME280;36992;48.200;12.418;2023-09-08T07:12:00;97069.88;;;20.35;50.42
50977;BME280;36992;48.200;12.418;2023-09-08T07:14:27;97064.88;;;20.37;50.86
50977;BME280;36992;48.200;12.418;2023-09-08T07:16:53;97071.94;;;20.38;50.68
50977;BME280;36992;48.200;12.418;2023-09-08T07:19:20;97065.66;;;20.38;50.98
50977;BME280;36992;48.200;12.418;2023-09-08T07:21:47;97071.47;;;20.36;50.67
50977;BME280;36992;48.200;12.418;2023-09-08T07:24:13;97067.25;;;20.39;51.16
50977;BME280;36992;48.200;12.418;2023-09-08T07:26:41;97067.34;;;20.42;50.87
50977;BME280;36992;48.200;12.418;2023-09-08T07:29:08;97074.06;;;20.45;51.44
50977;BME280;36992;48.200;12.418;2023-09-08T07:31:34;97066.31;;;20.47;51.30
50977;BME280;36992;48.200;12.418;2023-09-08T07:34:01;97071.56;;;20.52;51.63
50977;BME280;36992;48.200;12.418;2023-09-08T07:36:27;97066.94;;;20.56;51.57
50977;BME280;36992;48.200;12.418;2023-09-08T07:38:54;97071.75;;;20.59;50.82
50977;BME280;36992;48.200;12.418;2023-09-08T07:41:20;97066.78;;;20.65;51.80
50977;BME280;36992;48.200;12.418;2023-09-08T07:43:48;97073.25;;;20.73;51.16
50977;BME280;36992;48.200;12.418;2023-09-08T07:46:16;97073.78;;;20.79;51.53
50977;BME280;36992;48.200;12.418;2023-09-08T07:48:42;97073.22;;;20.85;51.49
50977;BME280;36992;48.200;12.418;2023-09-08T07:51:09;97074.56;;;20.92;51.38
50977;BME280;36992;48.200;12.418;2023-09-08T07:53:36;97075.06;;;20.97;50.70
50977;BME280;36992;48.200;12.418;2023-09-08T07:56:03;97074.81;;;21.02;51.55
50977;BME280;36992;48.200;12.418;2023-09-08T07:58:29;97071.47;;;21.09;51.61
50977;BME280;36992;48.200;12.418;2023-09-08T08:00:57;97073.25;;;21.18;51.78
50977;BME280;36992;48.200;12.418;2023-09-08T08:03:24;97071.03;;;21.23;51.06
50977;BME280;36992;48.200;12.418;2023-09-08T08:05:50;97070.41;;;21.30;51.95
50977;BME280;36992;48.200;12.418;2023-09-08T08:08:17;97075.63;;;21.35;52.55
50977;BME280;36992;48.200;12.418;2023-09-08T08:10:43;97075.78;;;21.42;51.37
50977;BME280;36992;48.200;12.418;2023-09-08T08:13:10;97075.53;;;21.48;51.77
50977;BME280;36992;48.200;12.418;2023-09-08T08:15:38;97070.22;;;21.55;52.66
50977;BME280;36992;48.200;12.418;2023-09-08T08:18:06;97072.69;;;21.60;51.74
50977;BME280;36992;48.200;12.418;2023-09-08T08:20:36;97068.44;;;21.63;52.59
50977;BME280;36992;48.200;12.418;2023-09-08T08:23:03;97067.72;;;21.66;52.37
50977;BME280;36992;48.200;12.418;2023-09-08T08:25:29;97072.59;;;21.73;51.50
50977;BME280;36992;48.200;12.418;2023-09-08T08:27:57;97069.13;;;21.76;52.01
50977;BME280;36992;48.200;12.418;2023-09-08T08:30:24;97065.75;;;21.82;51.96
50977;BME280;36992;48.200;12.418;2023-09-08T08:32:51;97066.28;;;21.88;52.82
50977;BME280;36992;48.200;12.418;2023-09-08T08:35:19;97060.94;;;21.95;52.42
50977;BME280;36992;48.200;12.418;2023-09-08T08:37:46;97069.69;;;22.01;52.64
50977;BME280;36992;48.200;12.418;2023-09-08T08:40:13;97057.28;;;22.07;52.46
50977;BME280;36992;48.200;12.418;2023-09-08T08:42:40;97051.13;;;22.14;52.47
50977;BME280;36992;48.200;12.418;2023-09-08T08:45:07;97049.69;;;22.20;51.89
50977;BME280;36992;48.200;12.418;2023-09-08T08:47:34;97049.84;;;22.28;52.47
50977;BME280;36992;48.200;12.418;2023-09-08T08:50:02;97049.19;;;22.34;52.31
50977;BME280;36992;48.200;12.418;2023-09-08T08:52:31;97052.13;;;22.45;51.81
50977;BME280;36992;48.200;12.418;2023-09-08T08:54:57;97056.56;;;22.50;51.80
50977;BME280;36992;48.200;12.418;2023-09-08T08:57:24;97053.91;;;22.54;51.59
50977;BME280;36992;48.200;12.418;2023-09-08T08:59:52;97044.94;;;22.57;51.84
50977;BME280;36992;48.200;12.418;2023-09-08T09:02:19;97061.47;;;22.60;51.55
50977;BME280;36992;48.200;12.418;2023-09-08T09:04:46;97046.66;;;22.65;51.07
50977;BME280;36992;48.200;12.418;2023-09-08T09:07:13;97047.16;;;22.71;51.18
50977;BME280;36992;48.200;12.418;2023-09-08T09:09:42;97046.50;;;22.77;51.01
50977;BME280;36992;48.200;12.418;2023-09-08T09:12:08;97039.91;;;22.82;52.03
50977;BME280;36992;48.200;12.418;2023-09-08T09:14:35;97040.75;;;22.86;51.64
50977;BME280;36992;48.200;12.418;2023-09-08T09:17:01;97039.28;;;22.93;51.18
50977;BME280;36992;48.200;12.418;2023-09-08T09:19:30;97042.19;;;23.00;50.78
50977;BME280;36992;48.200;12.418;2023-09-08T09:21:58;97040.25;;;23.04;50.62
50977;BME280;36992;48.200;12.418;2023-09-08T09:24:29;97036.50;;;23.12;50.49
50977;BME280;36992;48.200;12.418;2023-09-08T09:26:57;97035.38;;;23.17;50.63
50977;BME280;36992;48.200;12.418;2023-09-08T09:29:24;97032.69;;;23.21;50.63
50977;BME280;36992;48.200;12.418;2023-09-08T09:31:52;97036.72;;;23.27;50.90
50977;BME280;36992;48.200;12.418;2023-09-08T09:34:19;97034.09;;;23.34;50.18
50977;BME280;36992;48.200;12.418;2023-09-08T09:36:47;97034.59;;;23.40;50.09
50977;BME280;36992;48.200;12.418;2023-09-08T09:39:16;97037.88;;;23.49;50.18
50977;BME280;36992;48.200;12.418;2023-09-08T09:41:44;97036.38;;;23.55;50.89
50977;BME280;36992;48.200;12.418;2023-09-08T09:44:12;97033.00;;;23.66;50.34
50977;BME280;36992;48.200;12.418;2023-09-08T09:46:43;97028.06;;;23.79;49.76
50977;BME280;36992;48.200;12.418;2023-09-08T09:49:10;97027.78;;;23.88;49.71
50977;BME280;36992;48.200;12.418;2023-09-08T09:51:40;97027.19;;;24.02;48.79
50977;BME280;36992;48.200;12.418;2023-09-08T09:54:07;97027.72;;;24.11;48.41
50977;BME280;36992;48.200;12.418;2023-09-08T09:56:34;97031.75;;;24.21;48.53
50977;BME280;36992;48.200;12.418;2023-09-08T09:59:03;97027.94;;;24.29;48.81
50977;BME280;36992;48.200;12.418;2023-09-08T10:01:32;97023.72;;;24.39;48.83
50977;BME280;36992;48.200;12.418;2023-09-08T10:03:59;97018.28;;;24.46;48.54
50977;BME280;36992;48.200;12.418;2023-09-08T10:06:26;97021.13;;;24.57;48.23
50977;BME280;36992;48.200;12.418;2023-09-08T10:08:53;97015.69;;;24.64;47.88
50977;BME280;36992;48.200;12.418;2023-09-08T10:11:22;97012.28;;;24.75;47.87
50977;BME280;36992;48.200;12.418;2023-09-08T10:13:53;97014.34;;;24.82;48.65
50977;BME280;36992;48.200;12.418;2023-09-08T10:16:26;97017.56;;;24.91;47.63
50977;BME280;36992;48.200;12.418;2023-09-08T10:18:54;97008.94;;;24.96;47.98
50977;BME280;36992;48.200;12.418;2023-09-08T10:21:25;97021.59;;;25.04;47.77
50977;BME280;36992;48.200;12.418;2023-09-08T10:23:55;97013.00;;;25.13;47.52
50977;BME280;36992;48.200;12.418;2023-09-08T10:26:26;97016.25;;;25.23;46.41
50977;BME280;36992;48.200;12.418;2023-09-08T10:28:53;97009.19;;;25.25;47.21
50977;BME280;36992;48.200;12.418;2023-09-08T10:31:21;97002.91;;;25.32;47.09
50977;BME280;36992;48.200;12.418;2023-09-08T10:33:49;97005.72;;;25.39;47.01
50977;BME280;36992;48.200;12.418;2023-09-08T10:36:17;97004.59;;;25.48;46.88
50977;BME280;36992;48.200;12.418;2023-09-08T10:38:44;96997.59;;;25.54;47.19
50977;BME280;36992;48.200;12.418;2023-09-08T10:41:26;97004.34;;;25.67;46.89
50977;BME280;36992;48.200;12.418;2023-09-08T10:43:55;97001.59;;;25.67;46.66
50977;BME280;36992;48.200;12.418;2023-09-08T10:46:24;97004.78;;;25.77;46.39
50977;BME280;36992;48.200;12.418;2023-09-08T10:48:53;97012.69;;;25.82;46.00
50977;BME280;36992;48.200;12.418;2023-09-08T10:51:22;97009.56;;;25.87;46.03
50977;BME280;36992;48.200;12.418;2023-09-08T10:53:49;97012.34;;;25.91;46.05
50977;BME280;36992;48.200;12.418;2023-09-08T10:56:16;97006.09;;;25.97;45.55
50977;BME280;36992;48.200;12.418;2023-09-08T10:58:48;97000.97;;;26.07;46.18
50977;BME280;36992;48.200;12.418;2023-09-08T11:01:17;97010.47;;;26.13;46.05
50977;BME280;36992;48.200;12.418;2023-09-08T11:03:45;97008.13;;;26.15;45.95
50977;BME280;36992;48.200;12.418;2023-09-08T11:06:15;97001.47;;;26.23;45.21
50977;BME280;36992;48.200;12.418;2023-09-08T11:08:45;97004.63;;;26.29;45.29
50977;BME280;36992;48.200;12.418;2023-09-08T11:11:13;97006.63;;;26.32;44.64
50977;BME280;36992;48.200;12.418;2023-09-08T11:13:40;97000.31;;;26.35;44.67
50977;BME280;36992;48.200;12.418;2023-09-08T11:16:07;96993.63;;;26.40;44.82
50977;BME280;36992;48.200;12.418;2023-09-08T11:18:34;96996.41;;;26.44;45.91
50977;BME280;36992;48.200;12.418;2023-09-08T11:21:02;96996.81;;;26.49;44.86
50977;BME280;36992;48.200;12.418;2023-09-08T11:23:29;97000.38;;;26.53;44.05
50977;BME280;36992;48.200;12.418;2023-09-08T11:25:59;96996.03;;;26.60;44.02
50977;BME280;36992;48.200;12.418;2023-09-08T11:28:26;96994.84;;;26.61;43.63
50977;BME280;36992;48.200;12.418;2023-09-08T11:30:54;96994.84;;;26.64;44.77
50977;BME280;36992;48.200;12.418;2023-09-08T11:33:22;96991.72;;;26.70;44.60
50977;BME280;36992;48.200;12.418;2023-09-08T11:35:50;96986.56;;;26.75;43.98
50977;BME280;36992;48.200;12.418;2023-09-08T11:38:17;96990.53;;;26.82;44.42
50977;BME280;36992;48.200;12.418;2023-09-08T11:40:44;96991.31;;;26.86;43.56
50977;BME280;36992;48.200;12.418;2023-09-08T11:43:12;96980.69;;;26.91;45.06
50977;BME280;36992;48.200;12.418;2023-09-08T11:45:39;96980.69;;;26.95;44.80
50977;BME280;36992;48.200;12.418;2023-09-08T11:48:06;96982.66;;;27.02;44.08
50977;BME280;36992;48.200;12.418;2023-09-08T11:50:33;96980.69;;;27.10;44.27
50977;BME280;36992;48.200;12.418;2023-09-08T11:53:00;96985.81;;;27.15;43.69
50977;BME280;36992;48.200;12.418;2023-09-08T11:55:28;96984.22;;;27.21;43.59
50977;BME280;36992;48.200;12.418;2023-09-08T11:57:55;96983.44;;;27.28;43.31
50977;BME280;36992;48.200;12.418;2023-09-08T12:00:25;96974.34;;;27.38;43.36
50977;BME280;36992;48.200;12.418;2023-09-08T12:02:53;96985.78;;;27.40;42.59
50977;BME280;36992;48.200;12.418;2023-09-08T12:05:24;96978.28;;;27.48;42.79
50977;BME280;36992;48.200;12.418;2023-09-08T12:07:51;96976.28;;;27.48;42.83
50977;BME280;36992;48.200;12.418;2023-09-08T12:10:18;96971.94;;;27.51;42.73
50977;BME280;36992;48.200;12.418;2023-09-08T12:12:46;96973.13;;;27.57;42.46
50977;BME280;36992;48.200;12.418;2023-09-08T12:15:32;96984.94;;;27.69;43.20
50977;BME280;36992;48.200;12.418;2023-09-08T12:17:59;96975.88;;;27.68;42.17
50977;BME280;36992;48.200;12.418;2023-09-08T12:20:26;96973.09;;;27.72;42.99
50977;BME280;36992;48.200;12.418;2023-09-08T12:22:53;96965.97;;;27.78;43.44
50977;BME280;36992;48.200;12.418;2023-09-08T12:25:20;96975.03;;;27.82;41.72
50977;BME280;36992;48.200;12.418;2023-09-08T12:27:49;96976.59;;;27.91;42.20
50977;BME280;36992;48.200;12.418;2023-09-08T12:30:17;96980.53;;;27.90;41.09
50977;BME280;36992;48.200;12.418;2023-09-08T12:32:47;96978.91;;;27.96;42.03
50977;BME280;36992;48.200;12.418;2023-09-08T12:35:19;96971.78;;;28.02;41.66
50977;BME280;36992;48.200;12.418;2023-09-08T12:37:49;96972.97;;;28.01;42.47
50977;BME280;36992;48.200;12.418;2023-09-08T12:40:18;96966.22;;;28.06;41.31
50977;BME280;36992;48.200;12.418;2023-09-08T12:42:44;96970.97;;;28.09;41.66
50977;BME280;36992;48.200;12.418;2023-09-08T12:45:11;96971.34;;;28.11;42.39
50977;BME280;36992;48.200;12.418;2023-09-08T12:47:37;96966.97;;;28.13;41.77
50977;BME280;36992;48.200;12.418;2023-09-08T12:50:06;96962.59;;;28.20;41.96